Time;durP1;ratioP1;P1;durP2;ratioP2;P2;SDS_P1;SDS_P2;PMS_P1;PMS_P2;Temp;Humidity;BMP_temperature;BMP_pressure;BME280_temperature;BME280_humidity;BME280_pressure;Samples;Min_cycle;Max_cycle;Signal;HPM_P1;HPM_P2
2022/07/21 00:01:58;;;;;;;16.20;11.95;;;18.50;99.90;;;;;;7342969;32;20103;-61
2022/07/21 00:06:00;;;;;;;13.82;11.15;;;18.50;99.90;;;;;;7358800;32;20193;-61
2022/07/21 00:10:02;;;;;;;12.85;10.43;;;18.50;99.90;;;;;;7357920;32;20123;-61
2022/07/21 00:14:05;;;;;;;15.48;12.95;;;18.50;99.90;;;;;;7358123;32;20493;-61
2022/07/21 00:18:07;;;;;;;13.73;12.43;;;18.40;99.90;;;;;;7360796;32;20123;-61
2022/07/21 00:22:08;;;;;;;13.35;11.55;;;18.40;99.90;;;;;;7362939;32;20098;-61
2022/07/21 00:26:10;;;;;;;14.85;12.77;;;18.40;99.90;;;;;;7363292;32;20104;-62
2022/07/21 00:30:13;;;;;;;13.55;11.02;;;18.50;99.90;;;;;;7361959;32;20668;-61
2022/07/21 00:34:15;;;;;;;12.50;11.20;;;18.40;99.90;;;;;;7363079;32;20125;-61
2022/07/21 00:38:17;;;;;;;13.55;12.20;;;18.40;99.90;;;;;;7362157;32;20535;-61
2022/07/21 00:42:24;;;;;;;12.63;11.38;;;18.50;99.90;;;;;;7362196;32;20473;-61
2022/07/21 00:46:25;;;;;;;12.75;11.12;;;18.50;99.90;;;;;;7362269;32;20542;-61
2022/07/21 00:50:29;;;;;;;15.00;11.00;;;18.40;99.90;;;;;;7362307;32;20168;-61
2022/07/21 00:54:31;;;;;;;12.02;10.27;;;18.40;99.90;;;;;;7362378;32;20131;-61
2022/07/21 00:58:33;;;;;;;13.88;11.48;;;18.30;99.90;;;;;;7345082;32;20178;-60
2022/07/21 01:02:37;;;;;;;12.02;10.15;;;18.40;99.90;;;;;;7349387;32;20099;-63
2022/07/21 01:06:39;;;;;;;13.68;11.10;;;18.30;99.90;;;;;;7362176;32;20122;-61
2022/07/21 01:10:42;;;;;;;14.43;12.77;;;18.30;99.90;;;;;;7360947;32;20171;-61
2022/07/21 01:14:44;;;;;;;14.38;11.77;;;18.30;99.90;;;;;;7361918;32;20117;-61
2022/07/21 01:18:46;;;;;;;13.20;10.70;;;18.30;99.90;;;;;;7361068;32;20175;-61
2022/07/21 01:22:51;;;;;;;11.57;9.43;;;18.30;99.90;;;;;;7362177;32;20504;-61
2022/07/21 01:26:53;;;;;;;15.07;10.68;;;18.20;99.90;;;;;;7361426;32;20724;-61
2022/07/21 01:30:55;;;;;;;13.43;11.23;;;18.20;99.90;;;;;;7359382;32;20119;-60
2022/07/21 01:34:57;;;;;;;11.98;10.77;;;18.20;99.90;;;;;;7341031;32;20727;-61
2022/07/21 01:43:19;;;;;;;13.25;10.65;;;18.10;99.90;;;;;;7335686;32;20100;-61
2022/07/21 01:47:22;;;;;;;14.55;10.82;;;18.10;99.90;;;;;;7335926;32;20806;-62
2022/07/21 01:51:24;;;;;;;10.90;9.48;;;18.00;99.90;;;;;;7349992;32;20107;-61
2022/07/21 01:55:28;;;;;;;14.68;10.68;;;18.00;99.90;;;;;;7360780;32;20107;-61
2022/07/21 01:59:29;;;;;;;11.82;10.25;;;18.00;99.90;;;;;;7340101;32;20747;-61
2022/07/21 02:03:31;;;;;;;13.60;11.48;;;18.00;99.90;;;;;;7360165;32;20160;-61
2022/07/21 02:07:33;;;;;;;15.82;11.63;;;18.00;99.90;;;;;;7360388;32;20689;-60
2022/07/21 02:11:35;;;;;;;16.02;11.65;;;17.90;99.90;;;;;;7360227;32;20095;-60
2022/07/21 02:15:36;;;;;;;15.30;11.63;;;17.90;99.90;;;;;;7359355;32;20153;-60
2022/07/21 02:19:38;;;;;;;14.80;11.98;;;18.00;99.90;;;;;;7359241;32;20551;-61
2022/07/21 02:23:40;;;;;;;17.35;12.55;;;18.00;99.90;;;;;;7360864;32;20538;-60
2022/07/21 02:27:43;;;;;;;16.20;13.10;;;18.00;99.90;;;;;;7342747;32;20100;-60
2022/07/21 02:31:45;;;;;;;19.33;13.45;;;18.00;99.90;;;;;;7348508;32;20551;-60
2022/07/21 02:35:47;;;;;;;22.45;13.40;;;18.00;99.90;;;;;;7360190;32;20198;-61
2022/07/21 02:39:49;;;;;;;16.95;13.18;;;18.00;99.90;;;;;;7358136;32;20202;-60
2022/07/21 02:43:51;;;;;;;20.95;13.60;;;18.00;99.90;;;;;;7359611;32;20248;-61
2022/07/21 02:47:55;;;;;;;13.50;11.98;;;18.00;99.90;;;;;;7358664;32;20261;-60
2022/07/21 02:51:57;;;;;;;14.43;11.82;;;18.00;99.90;;;;;;7359589;32;20094;-61
2022/07/21 02:55:58;;;;;;;12.70;11.38;;;18.00;99.90;;;;;;7341542;32;20133;-61
2022/07/21 03:00:00;;;;;;;16.35;10.80;;;17.90;99.90;;;;;;7358334;32;20144;-62
2022/07/21 03:04:02;;;;;;;13.00;10.30;;;17.90;99.90;;;;;;7358990;32;20125;-61
2022/07/21 03:08:05;;;;;;;13.98;10.77;;;17.90;99.90;;;;;;7358439;32;20099;-61
2022/07/21 03:12:07;;;;;;;13.52;10.50;;;17.90;99.90;;;;;;7358847;32;20127;-60
2022/07/21 03:16:08;;;;;;;11.15;10.00;;;17.90;99.90;;;;;;7359108;32;20151;-61
2022/07/21 03:20:11;;;;;;;14.57;10.98;;;17.90;99.90;;;;;;7357831;32;20122;-60
2022/07/21 03:24:13;;;;;;;16.12;11.93;;;17.80;99.90;;;;;;7359030;32;20638;-61
2022/07/21 03:28:14;;;;;;;15.70;11.88;;;17.80;99.90;;;;;;7358659;32;20123;-61
2022/07/21 03:32:16;;;;;;;15.75;13.02;;;17.80;99.90;;;;;;7358678;32;20170;-61
2022/07/21 03:36:18;;;;;;;14.18;12.50;;;17.80;99.90;;;;;;7358676;32;20107;-61
2022/07/21 03:40:23;;;;;;;18.45;14.32;;;17.80;99.90;;;;;;7357181;32;20103;-60
2022/07/21 03:44:25;;;;;;;16.70;14.93;;;17.80;99.90;;;;;;7358398;32;20803;-60
2022/07/21 03:48:27;;;;;;;21.02;16.33;;;17.80;99.90;;;;;;7357435;32;20218;-61
2022/07/21 03:52:29;;;;;;;17.65;15.65;;;17.80;99.90;;;;;;7357714;32;20184;-61
2022/07/21 03:56:30;;;;;;;18.58;16.67;;;17.70;99.90;;;;;;7354423;32;20122;-60
2022/07/21 04:00:36;;;;;;;19.48;17.00;;;17.70;99.90;;;;;;7337009;32;20187;-61
2022/07/21 04:04:38;;;;;;;20.45;16.52;;;17.80;99.90;;;;;;7358285;32;20519;-60
2022/07/21 04:08:40;;;;;;;21.50;17.02;;;17.80;99.90;;;;;;7346924;32;20167;-61
2022/07/21 04:12:42;;;;;;;22.25;17.33;;;17.80;99.90;;;;;;7347926;32;20121;-60
2022/07/21 04:16:44;;;;;;;21.08;17.15;;;17.80;99.90;;;;;;7348917;32;20124;-63
2022/07/21 04:20:46;;;;;;;19.35;17.35;;;17.80;99.90;;;;;;7355265;32;20198;-61
2022/07/21 04:24:47;;;;;;;25.25;19.37;;;17.90;99.90;;;;;;7358034;32;20107;-60
2022/07/21 04:28:49;;;;;;;20.40;17.30;;;17.90;99.90;;;;;;7356834;32;20159;-61
2022/07/21 04:32:52;;;;;;;19.45;17.17;;;17.90;99.90;;;;;;7357674;32;20103;-60
2022/07/21 04:36:54;;;;;;;24.17;18.25;;;18.00;99.90;;;;;;7357755;32;20115;-60
2022/07/21 04:40:56;;;;;;;23.10;17.65;;;18.00;99.90;;;;;;7356373;32;20190;-61
2022/07/21 04:44:58;;;;;;;19.55;17.20;;;18.00;99.90;;;;;;7357358;32;20154;-60
2022/07/21 04:49:00;;;;;;;19.55;17.10;;;18.10;99.90;;;;;;7356794;32;20174;-64
2022/07/21 04:53:02;;;;;;;19.95;17.55;;;18.00;99.90;;;;;;7357117;32;20099;-65
2022/07/21 04:57:05;;;;;;;23.27;18.52;;;18.10;99.90;;;;;;7349544;32;20220;-65
2022/07/21 05:01:07;;;;;;;22.50;19.00;;;18.20;99.90;;;;;;7338608;32;20130;-65
2022/07/21 05:05:09;;;;;;;24.33;18.48;;;18.30;99.90;;;;;;7361652;32;20168;-64
2022/07/21 05:09:11;;;;;;;19.37;17.30;;;18.40;99.90;;;;;;7360762;32;20764;-65
2022/07/21 05:13:13;;;;;;;20.20;16.15;;;18.50;99.90;;;;;;7361082;32;20744;-64
2022/07/21 05:17:14;;;;;;;18.15;15.90;;;18.50;99.90;;;;;;7361554;32;20475;-64
2022/07/21 05:21:16;;;;;;;18.40;16.52;;;18.50;99.90;;;;;;7360589;32;20127;-64
2022/07/21 05:25:18;;;;;;;20.75;16.90;;;18.50;99.90;;;;;;7360357;32;20107;-64
2022/07/21 05:29:19;;;;;;;21.65;16.35;;;18.50;99.90;;;;;;7360416;32;20122;-64
2022/07/21 05:33:21;;;;;;;20.37;16.87;;;18.60;99.90;;;;;;7361386;32;20563;-64
2022/07/21 05:37:23;;;;;;;16.50;14.73;;;18.50;99.90;;;;;;7360832;32;20189;-65
2022/07/21 05:41:25;;;;;;;16.58;13.73;;;18.50;99.90;;;;;;7359640;32;20104;-65
2022/07/21 05:45:26;;;;;;;17.90;13.73;;;18.50;99.90;;;;;;7360456;32;20129;-64
2022/07/21 05:49:28;;;;;;;16.48;13.80;;;18.40;99.90;;;;;;7360341;32;20494;-64
2022/07/21 05:53:30;;;;;;;18.00;14.45;;;18.40;99.90;;;;;;7358438;32;20195;-64
2022/07/21 05:57:32;;;;;;;17.15;14.10;;;18.30;99.90;;;;;;7343879;32;20111;-65
2022/07/21 06:01:34;;;;;;;18.05;14.57;;;18.30;99.90;;;;;;7360290;32;20764;-65
2022/07/21 06:05:36;;;;;;;17.17;13.93;;;18.30;99.90;;;;;;7360401;32;20123;-67
2022/07/21 06:09:37;;;;;;;16.30;13.65;;;18.40;99.90;;;;;;7359403;32;20182;-65
2022/07/21 06:13:40;;;;;;;17.98;13.75;;;18.50;99.90;;;;;;7359746;32;20123;-65
2022/07/21 06:17:44;;;;;;;17.58;14.07;;;18.50;99.90;;;;;;7351631;32;20096;-65
2022/07/21 06:21:46;;;;;;;17.50;13.70;;;18.60;99.90;;;;;;7360065;32;20167;-65
2022/07/21 06:25:48;;;;;;;13.95;12.60;;;18.60;99.90;;;;;;7359976;32;20202;-65
2022/07/21 06:29:50;;;;;;;17.25;12.65;;;18.60;99.90;;;;;;7358533;32;20270;-65
2022/07/21 06:33:52;;;;;;;16.55;13.57;;;18.70;99.90;;;;;;7359610;32;20525;-65
2022/07/21 06:37:54;;;;;;;18.25;15.15;;;18.70;99.90;;;;;;7358652;32;20114;-66
2022/07/21 06:41:56;;;;;;;18.42;13.30;;;18.80;99.90;;;;;;7359879;32;20148;-65
2022/07/21 06:45:58;;;;;;;13.25;11.77;;;18.80;99.90;;;;;;7359421;32;20164;-66
2022/07/21 06:50:02;;;;;;;14.23;12.20;;;18.90;99.90;;;;;;7358369;32;20103;-66
2022/07/21 06:54:06;;;;;;;16.47;12.43;;;18.90;99.90;;;;;;7358370;32;20175;-65
2022/07/21 06:58:09;;;;;;;16.70;11.60;;;19.00;99.90;;;;;;7355151;32;20103;-66
2022/07/21 07:02:11;;;;;;;13.88;11.23;;;19.00;99.90;;;;;;7359387;32;20193;-65
2022/07/21 07:06:13;;;;;;;17.05;10.70;;;19.90;99.90;;;;;;7358699;32;20103;-66
2022/07/21 07:10:15;;;;;;;12.30;8.43;;;20.80;99.90;;;;;;7358064;32;20099;-66
2022/07/21 07:14:17;;;;;;;10.63;7.68;;;21.50;99.90;;;;;;7358797;32;20215;-65
2022/07/21 07:18:21;;;;;;;7.97;6.65;;;21.80;99.90;;;;;;7357370;32;20103;-64
2022/07/21 07:22:23;;;;;;;9.57;7.57;;;21.70;99.90;;;;;;7358017;32;20172;-64
2022/07/21 07:26:25;;;;;;;10.75;7.65;;;21.20;99.90;;;;;;7358121;32;20156;-66
2022/07/21 07:30:27;;;;;;;14.73;6.93;;;21.10;99.90;;;;;;7357115;32;20498;-65
2022/07/21 07:34:29;;;;;;;9.93;7.60;;;21.30;99.90;;;;;;7358718;32;20142;-64
2022/07/21 07:38:30;;;;;;;7.55;6.15;;;21.50;99.90;;;;;;7357229;32;20211;-65
2022/07/21 07:42:32;;;;;;;8.10;6.03;;;21.40;99.90;;;;;;7358649;32;20100;-65
2022/07/21 07:46:34;;;;;;;7.80;5.45;;;21.20;99.90;;;;;;7358370;32;20583;-65
2022/07/21 07:50:36;;;;;;;10.85;6.15;;;21.00;99.90;;;;;;7353847;32;20160;-65
2022/07/21 07:54:38;;;;;;;8.52;6.72;;;20.80;99.90;;;;;;7332471;32;20175;-65
2022/07/21 07:58:40;;;;;;;7.95;6.05;;;20.90;99.90;;;;;;7348381;32;20258;-64
2022/07/21 08:02:42;;;;;;;9.13;6.07;;;21.00;99.90;;;;;;7357650;32;20182;-64
2022/07/21 08:06:44;;;;;;;11.10;5.62;;;21.20;99.90;;;;;;7357829;32;20241;-64
2022/07/21 08:10:45;;;;;;;6.75;5.50;;;21.30;99.90;;;;;;7356596;32;20198;-65
2022/07/21 08:14:48;;;;;;;9.55;5.55;;;21.10;99.90;;;;;;7358074;32;20095;-65
2022/07/21 08:18:49;;;;;;;7.95;5.60;;;21.10;99.90;;;;;;7356411;32;20159;-65
2022/07/21 08:22:51;;;;;;;10.30;5.22;;;21.30;99.90;;;;;;7357539;32;20567;-65
2022/07/21 08:26:53;;;;;;;10.40;4.57;;;21.30;99.90;;;;;;7357631;32;20104;-65
2022/07/21 08:30:55;;;;;;;7.12;4.35;;;21.60;99.90;;;;;;7357197;32;20100;-64
2022/07/21 08:34:57;;;;;;;10.23;5.07;;;21.60;99.90;;;;;;7357082;32;20202;-65
2022/07/21 08:38:59;;;;;;;8.27;4.65;;;21.80;99.90;;;;;;7359718;32;20115;-65
2022/07/21 08:43:01;;;;;;;10.48;4.60;;;22.10;99.90;;;;;;7362195;32;20127;-65
2022/07/21 08:47:04;;;;;;;5.50;4.43;;;22.40;99.90;;;;;;7362439;32;20156;-65
2022/07/21 08:51:07;;;;;;;7.55;4.60;;;22.20;99.90;;;;;;7361450;32;20099;-65
2022/07/21 08:55:08;;;;;;;10.05;5.82;;;22.20;99.90;;;;;;7362027;32;20132;-65
2022/07/21 08:59:10;;;;;;;10.75;5.37;;;22.20;99.90;;;;;;7356581;32;20156;-64
2022/07/21 09:03:21;;;;;;;8.95;5.78;;;22.20;99.90;;;;;;7362200;32;20115;-64
2022/07/21 09:07:23;;;;;;;9.77;6.20;;;22.20;99.90;;;;;;7361406;32;20207;-65
2022/07/21 09:11:28;;;;;;;9.32;6.20;;;21.90;99.90;;;;;;7361272;32;20103;-65
2022/07/21 09:15:32;;;;;;;10.30;5.82;;;21.80;99.90;;;;;;7361532;32;20127;-65
2022/07/21 09:19:38;;;;;;;8.68;6.10;;;21.90;99.90;;;;;;7335424;32;20154;-65
2022/07/21 09:23:40;;;;;;;8.77;6.03;;;22.00;99.90;;;;;;7336178;32;20161;-66
2022/07/21 09:27:42;;;;;;;10.27;6.50;;;21.90;99.90;;;;;;7360342;32;20160;-65
2022/07/21 09:31:44;;;;;;;10.13;6.55;;;21.90;99.90;;;;;;7361553;32;20665;-65
2022/07/21 09:35:59;;;;;;;12.68;6.30;;;21.80;99.90;;;;;;7360774;32;20103;-65
2022/07/21 09:40:07;;;;;;;6.70;6.00;;;21.90;99.90;;;;;;7360927;32;20207;-65
2022/07/21 09:44:09;;;;;;;7.40;5.40;;;22.10;99.90;;;;;;7360894;32;20123;-64
2022/07/21 09:48:38;;;;;;;7.70;5.30;;;22.30;99.90;;;;;;7360096;32;20207;-65
2022/07/21 09:52:43;;;;;;;11.25;4.93;;;22.60;99.90;;;;;;7360818;32;20103;-65
2022/07/21 09:56:47;;;;;;;8.02;5.80;;;22.70;99.90;;;;;;7355205;32;20127;-65
2022/07/21 10:00:49;;;;;;;8.68;4.82;;;22.50;99.90;;;;;;7334376;32;20107;-68
2022/07/21 10:05:13;;;;;;;11.50;6.28;;;22.30;99.90;;;;;;7342459;32;20493;-65
2022/07/21 10:09:15;;;;;;;12.37;5.80;;;22.20;99.90;;;;;;7359552;32;20251;-65
2022/07/21 10:13:19;;;;;;;7.75;5.55;;;22.10;99.90;;;;;;7360914;32;20484;-65
2022/07/21 10:17:23;;;;;;;7.78;5.72;;;22.00;99.90;;;;;;7360536;32;20103;-65
2022/07/21 10:21:30;;;;;;;8.48;6.20;;;21.80;99.90;;;;;;7358695;32;20237;-65
2022/07/21 10:25:32;;;;;;;9.38;6.37;;;21.60;99.90;;;;;;7360176;32;20159;-65
2022/07/21 10:29:55;;;;;;;11.10;7.28;;;21.40;99.90;;;;;;7358889;32;20611;-65
2022/07/21 10:34:02;;;;;;;11.20;7.53;;;21.10;99.90;;;;;;7359734;32;20496;-64
2022/07/21 10:38:04;;;;;;;11.57;7.55;;;20.90;99.90;;;;;;7359038;32;20164;-65
2022/07/21 10:42:16;;;;;;;12.07;7.50;;;20.80;99.90;;;;;;7359228;32;20150;-64
2022/07/21 10:46:34;;;;;;;13.65;8.13;;;20.80;99.90;;;;;;7359561;32;20130;-65
2022/07/21 10:50:41;;;;;;;11.70;7.45;;;20.70;99.90;;;;;;7359128;32;20099;-65
2022/07/21 10:55:23;;;;;;;10.90;7.97;;;20.60;99.90;;;;;;7355289;32;20203;-65
2022/07/21 10:59:25;;;;;;;9.15;6.30;;;20.60;99.90;;;;;;7336034;32;20304;-66
2022/07/21 11:03:31;;;;;;;8.15;6.37;;;20.60;99.90;;;;;;7333606;32;20104;-65
2022/07/21 11:08:12;;;;;;;9.75;6.80;;;20.50;99.90;;;;;;7357245;32;20099;-66
2022/07/21 11:12:14;;;;;;;11.70;7.50;;;20.50;99.90;;;;;;7359308;32;20115;-66
2022/07/21 11:16:16;;;;;;;8.20;6.97;;;20.40;99.90;;;;;;7359083;32;20221;-64
2022/07/21 11:20:18;;;;;;;11.18;7.93;;;20.30;99.90;;;;;;7357840;32;20122;-66
2022/07/21 11:24:24;;;;;;;9.00;7.57;;;20.10;99.90;;;;;;7358921;32;20665;-64
2022/07/21 11:28:25;;;;;;;11.57;8.57;;;20.00;99.90;;;;;;7358090;32;20266;-65
2022/07/21 11:32:27;;;;;;;12.02;7.82;;;20.00;99.90;;;;;;7358778;32;20111;-64
2022/07/21 11:36:31;;;;;;;11.68;9.07;;;19.70;99.90;;;;;;7358328;32;20096;-64
2022/07/21 11:40:33;;;;;;;10.75;9.68;;;19.50;99.90;;;;;;7357488;32;20168;-65
2022/07/21 11:44:35;;;;;;;13.62;9.95;;;19.40;99.90;;;;;;7357243;32;20222;-65
2022/07/21 11:48:37;;;;;;;13.40;10.82;;;19.40;99.90;;;;;;7357168;32;20103;-64
2022/07/21 11:52:40;;;;;;;15.68;11.30;;;19.40;99.90;;;;;;7358149;32;20202;-65
2022/07/21 11:56:42;;;;;;;14.43;12.00;;;19.50;99.90;;;;;;7347982;32;20276;-64
2022/07/21 12:00:43;;;;;;;14.68;11.38;;;19.50;99.90;;;;;;7332185;32;20095;-65
2022/07/21 12:04:55;;;;;;;11.60;10.40;;;19.50;99.90;;;;;;7336728;32;20515;-64
2022/07/21 12:08:57;;;;;;;12.25;9.50;;;19.30;99.90;;;;;;7357602;32;20103;-64
2022/07/21 12:13:04;;;;;;;16.77;9.35;;;19.20;99.90;;;;;;7357906;32;20164;-64
2022/07/21 12:17:06;;;;;;;9.93;8.27;;;19.20;99.90;;;;;;7357540;32;20266;-64
2022/07/21 12:21:08;;;;;;;9.77;7.62;;;19.20;99.90;;;;;;7357327;32;20178;-64
2022/07/21 12:25:12;;;;;;;9.30;7.45;;;19.20;99.90;;;;;;7357868;32;20177;-64
2022/07/21 12:29:29;;;;;;;9.35;7.45;;;19.20;99.90;;;;;;7357056;32;20247;-64
2022/07/21 12:33:31;;;;;;;9.13;7.03;;;19.30;99.90;;;;;;7357784;32;20510;-64
2022/07/21 12:38:02;;;;;;;9.20;6.47;;;19.20;99.90;;;;;;7356570;32;20608;-64
2022/07/21 12:42:11;;;;;;;8.38;6.20;;;19.20;99.90;;;;;;7358138;32;20095;-64
2022/07/21 12:46:17;;;;;;;8.70;6.30;;;19.10;99.90;;;;;;7356087;32;20107;-64
2022/07/21 12:50:19;;;;;;;5.97;4.80;;;19.10;99.90;;;;;;7356439;32;20170;-66
2022/07/21 12:54:24;;;;;;;4.97;4.18;;;19.20;99.90;;;;;;7349778;32;20111;-64
2022/07/21 12:58:26;;;;;;;5.47;3.95;;;19.10;99.90;;;;;;7340491;32;20199;-65
2022/07/21 13:02:31;;;;;;;5.15;3.53;;;19.00;99.90;;;;;;7331887;32;20179;-64
2022/07/21 13:06:33;;;;;;;7.20;3.78;;;19.00;99.90;;;;;;7346376;32;20117;-64
2022/07/21 13:10:35;;;;;;;3.87;3.55;;;18.90;99.90;;;;;;7356940;32;20115;-64
2022/07/21 13:14:36;;;;;;;5.82;4.62;;;18.80;99.90;;;;;;7357472;32;20632;-64
2022/07/21 13:18:38;;;;;;;5.43;4.93;;;18.70;99.90;;;;;;7355175;32;20191;-64
2022/07/21 13:22:41;;;;;;;6.25;5.65;;;18.70;99.90;;;;;;7357490;32;20143;-64
2022/07/21 13:26:42;;;;;;;7.12;6.53;;;18.60;99.90;;;;;;7360435;32;20141;-64
2022/07/21 13:30:46;;;;;;;7.97;7.25;;;18.60;99.90;;;;;;7360700;32;20218;-64
2022/07/21 13:34:47;;;;;;;9.00;8.18;;;18.50;99.90;;;;;;7361345;32;20119;-64
2022/07/21 13:39:09;;;;;;;12.63;9.90;;;18.40;99.90;;;;;;7359912;32;20115;-64
2022/07/21 13:43:31;;;;;;;10.95;9.70;;;18.30;99.90;;;;;;7361320;32;20135;-64
2022/07/21 13:47:39;;;;;;;11.60;10.35;;;18.20;99.90;;;;;;7360856;32;20096;-64
2022/07/21 13:51:41;;;;;;;11.95;9.93;;;18.20;99.90;;;;;;7361111;32;20584;-64
2022/07/21 13:55:42;;;;;;;11.05;10.02;;;18.20;99.90;;;;;;7353952;32;20167;-64
2022/07/21 13:59:45;;;;;;;11.77;10.60;;;18.20;99.90;;;;;;7359741;32;20108;-64
2022/07/21 14:03:48;;;;;;;10.20;9.05;;;18.10;99.90;;;;;;7360635;32;20300;-64
2022/07/21 14:07:50;;;;;;;11.90;9.40;;;18.00;99.90;;;;;;7359375;32;20453;-63
2022/07/21 14:11:52;;;;;;;13.57;10.38;;;17.90;99.90;;;;;;7360009;32;20159;-64
2022/07/21 14:15:54;;;;;;;11.93;10.55;;;17.90;99.90;;;;;;7360116;32;20143;-65
2022/07/21 14:19:56;;;;;;;13.50;9.90;;;18.10;99.90;;;;;;7359238;32;20274;-64
2022/07/21 14:28:20;;;;;;;9.20;8.30;;;18.40;99.90;;;;;;7358962;32;20770;-64
2022/07/21 14:32:22;;;;;;;9.20;8.18;;;18.40;99.90;;;;;;7359615;32;20103;-64
2022/07/21 14:36:24;;;;;;;8.80;7.90;;;18.40;99.90;;;;;;7359001;32;20096;-64
2022/07/21 14:40:26;;;;;;;7.40;6.70;;;18.40;99.90;;;;;;7358456;32;20152;-65
2022/07/21 14:44:27;;;;;;;9.48;7.10;;;18.40;99.90;;;;;;7359216;32;20171;-65
2022/07/21 14:48:29;;;;;;;6.95;6.25;;;18.40;99.90;;;;;;7358635;32;20110;-67
2022/07/21 14:52:31;;;;;;;10.43;6.35;;;18.40;99.90;;;;;;7359530;32;20135;-65
2022/07/21 14:56:33;;;;;;;6.43;5.82;;;18.40;99.90;;;;;;7346460;32;20191;-65
2022/07/21 15:00:54;;;;;;;5.93;5.32;;;18.30;99.90;;;;;;7332572;32;20092;-65
2022/07/21 15:04:56;;;;;;;7.00;5.72;;;18.30;99.90;;;;;;7335304;32;20194;-64
2022/07/21 15:08:58;;;;;;;7.75;6.28;;;18.20;99.90;;;;;;7357607;32;20167;-64
2022/07/21 15:12:59;;;;;;;7.85;6.32;;;18.10;99.90;;;;;;7358477;32;20103;-65
2022/07/21 15:17:02;;;;;;;7.45;6.75;;;18.10;99.90;;;;;;7358298;32;20124;-64
2022/07/21 15:21:04;;;;;;;8.15;7.30;;;18.20;99.90;;;;;;7357810;32;20099;-65
2022/07/21 15:25:09;;;;;;;7.43;6.72;;;18.20;99.90;;;;;;7358546;32;20171;-65
2022/07/21 15:29:12;;;;;;;9.20;7.50;;;18.20;99.90;;;;;;7357007;32;20190;-65
2022/07/21 15:33:13;;;;;;;8.18;7.43;;;18.20;99.90;;;;;;7358567;32;20123;-65
2022/07/21 15:37:15;;;;;;;8.75;8.00;;;18.20;99.90;;;;;;7357764;32;20099;-65
2022/07/21 15:41:17;;;;;;;8.82;7.70;;;18.20;99.90;;;;;;7357338;32;20188;-65
2022/07/21 15:45:40;;;;;;;8.13;7.07;;;18.20;99.90;;;;;;7357156;32;20162;-65
2022/07/21 15:49:42;;;;;;;7.07;6.47;;;18.10;99.90;;;;;;7357102;32;20122;-65
2022/07/21 15:53:44;;;;;;;7.05;6.30;;;18.10;99.90;;;;;;7354710;32;20170;-65
2022/07/21 15:57:45;;;;;;;10.15;7.05;;;18.00;99.90;;;;;;7339629;32;20156;-65
2022/07/21 16:01:47;;;;;;;8.02;6.03;;;18.10;99.90;;;;;;7331799;32;20187;-65
2022/07/21 16:05:49;;;;;;;6.43;5.72;;;18.00;99.90;;;;;;7339076;32;20163;-65
2022/07/21 16:09:51;;;;;;;7.10;5.72;;;18.00;99.90;;;;;;7357050;32;20118;-64
2022/07/21 16:13:53;;;;;;;7.62;6.05;;;18.00;99.90;;;;;;7357108;32;20130;-64
2022/07/21 16:17:55;;;;;;;7.60;6.87;;;17.90;99.90;;;;;;7356069;32;20135;-65
2022/07/21 16:21:58;;;;;;;9.52;6.95;;;17.90;99.90;;;;;;7357562;32;20119;-65
2022/07/21 16:26:00;;;;;;;8.82;7.25;;;17.90;99.90;;;;;;7356865;32;20100;-65
2022/07/21 16:30:03;;;;;;;9.43;8.40;;;17.90;99.90;;;;;;7356578;32;20577;-65
2022/07/21 16:34:06;;;;;;;11.07;7.80;;;17.90;99.90;;;;;;7357321;32;20111;-66
2022/07/21 16:38:07;;;;;;;9.80;8.77;;;17.90;99.90;;;;;;7356263;32;20129;-65
2022/07/21 16:42:09;;;;;;;9.88;8.45;;;17.90;99.90;;;;;;7357324;32;20484;-65
2022/07/21 16:46:14;;;;;;;9.63;7.97;;;17.80;99.90;;;;;;7356841;32;20095;-65
2022/07/21 16:50:17;;;;;;;10.63;7.95;;;17.80;99.90;;;;;;7356562;32;20103;-65
2022/07/21 16:54:19;;;;;;;8.65;7.43;;;17.80;99.90;;;;;;7349625;32;20127;-65
2022/07/21 16:58:20;;;;;;;11.55;7.80;;;17.90;99.90;;;;;;7339010;32;20220;-65
2022/07/21 17:02:22;;;;;;;11.98;6.60;;;17.80;99.90;;;;;;7336037;32;20179;-64
2022/07/21 17:06:24;;;;;;;7.50;6.55;;;17.80;99.90;;;;;;7345816;32;20536;-65
2022/07/21 17:10:26;;;;;;;10.48;8.27;;;17.90;99.90;;;;;;7360823;32;20238;-65
2022/07/21 17:14:28;;;;;;;9.00;7.50;;;17.80;99.90;;;;;;7361866;32;20198;-65
2022/07/21 17:18:30;;;;;;;9.13;6.97;;;17.80;99.90;;;;;;7360494;32;20198;-65
2022/07/21 17:22:32;;;;;;;8.90;7.87;;;17.70;99.90;;;;;;7361477;32;20180;-65
2022/07/21 17:26:34;;;;;;;13.62;8.70;;;17.70;99.90;;;;;;7361159;32;20158;-66
2022/07/21 17:30:35;;;;;;;13.62;8.73;;;17.70;99.90;;;;;;7334970;32;20099;-65
2022/07/21 17:34:39;;;;;;;12.90;8.13;;;17.80;99.90;;;;;;7335804;32;20703;-67
2022/07/21 17:38:40;;;;;;;10.75;8.77;;;17.60;99.90;;;;;;7334493;32;20160;-65
2022/07/21 17:42:42;;;;;;;12.18;8.90;;;17.60;99.90;;;;;;7360528;32;20117;-64
2022/07/21 17:46:44;;;;;;;12.27;9.00;;;17.60;99.90;;;;;;7361003;32;20795;-65
2022/07/21 17:50:46;;;;;;;12.05;9.40;;;17.60;99.90;;;;;;7359945;32;20596;-65
2022/07/21 17:54:48;;;;;;;11.90;10.00;;;17.50;99.90;;;;;;7349994;32;20223;-65
2022/07/21 17:58:49;;;;;;;14.40;11.80;;;17.50;99.90;;;;;;7352750;32;20203;-64
2022/07/21 18:02:51;;;;;;;15.02;11.75;;;17.50;99.90;;;;;;7360871;32;20566;-64
2022/07/21 18:06:53;;;;;;;17.90;13.02;;;17.50;99.90;;;;;;7360561;32;20558;-65
2022/07/21 18:10:55;;;;;;;16.12;11.82;;;17.50;99.90;;;;;;7358275;32;20194;-65
2022/07/21 18:14:58;;;;;;;18.73;10.60;;;17.50;99.90;;;;;;7360769;32;20161;-65
2022/07/21 18:19:00;;;;;;;13.15;10.00;;;17.50;99.90;;;;;;7359346;32;20134;-65
2022/07/21 18:23:02;;;;;;;19.05;11.52;;;17.40;99.90;;;;;;7359872;32;20088;-66
2022/07/21 18:27:05;;;;;;;16.98;11.25;;;17.40;99.90;;;;;;7359936;32;20104;-66
2022/07/21 18:31:08;;;;;;;13.82;10.40;;;17.40;99.90;;;;;;7358939;32;20191;-65
2022/07/21 18:35:11;;;;;;;12.68;10.50;;;17.40;99.90;;;;;;7360184;32;20493;-66
2022/07/21 18:39:13;;;;;;;14.27;10.07;;;17.40;99.90;;;;;;7358937;32;20781;-66
2022/07/21 18:43:15;;;;;;;14.05;8.80;;;17.40;99.90;;;;;;7359276;32;20129;-65
2022/07/21 18:47:16;;;;;;;11.48;7.85;;;17.30;99.90;;;;;;7359808;32;20110;-65
2022/07/21 18:51:18;;;;;;;8.52;7.55;;;17.30;99.90;;;;;;7358522;32;20178;-65
2022/07/21 18:55:20;;;;;;;8.98;8.05;;;17.30;99.90;;;;;;7359457;32;20096;-67
2022/07/21 18:59:22;;;;;;;14.15;7.18;;;17.30;99.90;;;;;;7341806;32;20511;-66
2022/07/21 19:03:23;;;;;;;11.20;7.35;;;17.20;99.90;;;;;;7359386;32;20165;-66
2022/07/21 19:07:25;;;;;;;8.70;7.25;;;17.30;99.90;;;;;;7359515;32;20118;-65
2022/07/21 19:11:46;;;;;;;12.25;6.95;;;17.20;99.90;;;;;;7359126;32;20131;-65
2022/07/21 19:15:47;;;;;;;11.85;6.90;;;17.20;99.90;;;;;;7358752;32;20123;-64
2022/07/21 19:19:49;;;;;;;9.70;7.05;;;17.20;99.90;;;;;;7358352;32;20103;-67
2022/07/21 19:23:51;;;;;;;10.45;7.70;;;17.20;99.90;;;;;;7358573;32;20099;-65
2022/07/21 19:27:53;;;;;;;9.80;7.35;;;17.20;99.90;;;;;;7358053;32;20190;-66
2022/07/21 19:31:55;;;;;;;9.73;8.30;;;17.20;99.90;;;;;;7358517;32;20108;-65
2022/07/21 19:35:58;;;;;;;11.70;8.32;;;17.10;99.90;;;;;;7358322;32;20194;-65
2022/07/21 19:40:00;;;;;;;12.00;8.57;;;17.10;99.90;;;;;;7357778;32;20156;-65
2022/07/21 19:44:02;;;;;;;12.25;9.25;;;17.10;99.90;;;;;;7357836;32;20198;-66
2022/07/21 19:48:04;;;;;;;11.93;9.82;;;17.10;99.90;;;;;;7357858;32;20222;-61
2022/07/21 19:52:06;;;;;;;10.70;9.05;;;17.10;99.90;;;;;;7357828;32;20129;-62
2022/07/21 19:56:08;;;;;;;14.75;10.18;;;17.10;99.90;;;;;;7340186;32;20187;-62
2022/07/21 20:00:17;;;;;;;13.43;9.90;;;17.10;99.90;;;;;;7357154;32;20268;-60
2022/07/21 20:04:18;;;;;;;10.55;9.45;;;17.00;99.90;;;;;;7358633;32;20250;-63
2022/07/21 20:08:22;;;;;;;18.15;10.20;;;17.10;99.90;;;;;;7357422;32;20152;-62
2022/07/21 20:12:24;;;;;;;10.63;9.18;;;17.10;99.90;;;;;;7358104;32;20164;-60
2022/07/21 20:16:25;;;;;;;10.48;9.10;;;17.00;99.90;;;;;;7358103;32;20186;-64
2022/07/21 20:20:27;;;;;;;12.43;9.55;;;17.00;99.90;;;;;;7357108;32;20135;-62
2022/07/21 20:24:30;;;;;;;14.70;9.50;;;16.90;99.90;;;;;;7357771;32;20125;-61
2022/07/21 20:28:31;;;;;;;11.05;9.73;;;16.90;99.90;;;;;;7356973;32;20125;-62
2022/07/21 20:32:33;;;;;;;10.43;8.95;;;16.90;99.90;;;;;;7357832;32;20183;-62
2022/07/21 20:36:36;;;;;;;12.18;7.87;;;17.00;99.90;;;;;;7363810;32;20100;-62
2022/07/21 20:40:38;;;;;;;10.20;7.97;;;16.90;99.90;;;;;;7362226;32;20122;-61
2022/07/21 20:45:00;;;;;;;9.85;8.05;;;16.90;99.90;;;;;;7362754;32;20126;-61
2022/07/21 20:49:02;;;;;;;11.80;9.10;;;16.90;99.90;;;;;;7361891;32;20167;-61
2022/07/21 20:53:08;;;;;;;13.85;9.13;;;16.90;99.90;;;;;;7362432;32;20125;-61
2022/07/21 20:57:29;;;;;;;10.60;8.35;;;17.00;99.90;;;;;;7355168;32;20215;-59